Noshahr Airport

Airport
ICAO code: 
OINN
IATA Code: 
NSH
Summary
ICAO Region: 
MID
Territory: 
Location: 
Nowshahr, Mazandaran Province
Serving: 
Chalus
Elevation: 
-61 ft
Coordinates: 
Aerial View: 
36° 39' 36.678" N, 51° 28' 9.014" E
Metar
Observation
OINN 030800Z 32004KT 9999 FEW023CB BKN027 OVC080 26/19 Q1010
Station
Noshahr
Date/Time
2022-07-03 08:00:00
Wind direction
320°
Wind speed
04 kts
Lowest cloud amount
few clouds
Temperature
26°C
Dew point
19°C
Humidity
65%
QNH
1010 hPa
Weather condition
n/a

Airport serving Nowshahr and Chalus in northern Iran.

Climatology

Humid sub-tropical climate (Köppen climate classification Csa).

Runways

Designator Length Width Surface Rops
10/28 1884 35 ASP No/No
Airport map: 
Aerial View: 

SKYbrary Partners:

Safety knowledge contributed by: